createdAt,value
2022-08-18T00:01:22.546Z,96948.81
2022-08-18T00:03:55.968Z,96944.06
2022-08-18T00:06:29.641Z,96939.41
2022-08-18T00:08:59.592Z,96933.47
2022-08-18T00:11:40.421Z,96924.56
2022-08-18T00:14:21.660Z,96923.47
2022-08-18T00:16:53.071Z,96913.88
2022-08-18T00:19:46.746Z,96917.97
2022-08-18T00:22:14.665Z,96927.09
2022-08-18T00:24:48.653Z,96915.00
2022-08-18T00:27:23.302Z,96910.44
2022-08-18T00:29:52.905Z,96905.66
2022-08-18T00:32:23.643Z,96902.22
2022-08-18T00:34:52.073Z,96909.31
2022-08-18T00:37:22.466Z,96908.34
2022-08-18T00:39:52.659Z,96914.00
2022-08-18T00:42:26.983Z,96911.13
2022-08-18T00:44:59.740Z,96917.03
2022-08-18T00:47:41.752Z,96915.13
2022-08-18T00:50:16.314Z,96919.81
2022-08-18T00:52:55.212Z,96904.75
2022-08-18T00:55:23.958Z,96901.84
2022-08-18T00:57:55.098Z,96893.63
2022-08-18T01:00:23.545Z,96887.28
2022-08-18T01:02:54.648Z,96891.22
2022-08-18T01:05:26.078Z,96888.22
2022-08-18T01:07:56.372Z,96879.78
2022-08-18T01:10:25.150Z,96887.22
2022-08-18T01:12:55.571Z,96880.56
2022-08-18T01:15:29.369Z,96886.81
2022-08-18T01:18:16.668Z,96886.03
2022-08-18T01:21:06.241Z,96890.91
2022-08-18T01:23:37.332Z,96887.94
2022-08-18T01:26:04.840Z,96876.28
2022-08-18T01:28:35.104Z,96868.97
2022-08-18T01:31:04.093Z,96860.25
2022-08-18T01:33:36.712Z,96852.03
2022-08-18T01:36:12.836Z,96851.69
2022-08-18T01:38:42.491Z,96843.75
2022-08-18T01:41:26.078Z,96845.56
2022-08-18T01:43:58.713Z,96854.13
2022-08-18T01:46:27.459Z,96850.66
2022-08-18T01:48:58.680Z,96851.97
2022-08-18T01:51:38.272Z,96853.38
2022-08-18T01:54:13.161Z,96861.25
2022-08-18T01:56:42.474Z,96853.06
2022-08-18T01:59:14.618Z,96853.38
2022-08-18T02:01:48.692Z,96844.75
2022-08-18T02:04:35.046Z,96850.97
2022-08-18T02:07:09.797Z,96850.00
2022-08-18T02:09:41.045Z,96844.28
2022-08-18T02:12:09.836Z,96845.91
2022-08-18T02:14:38.705Z,96854.06
2022-08-18T02:17:08.944Z,96847.84
2022-08-18T02:19:39.054Z,96851.97
2022-08-18T02:22:09.505Z,96851.50
2022-08-18T02:24:39.191Z,96855.09
2022-08-18T02:27:08.823Z,96851.31
2022-08-18T02:29:37.632Z,96855.88
2022-08-18T02:32:06.684Z,96865.88
2022-08-18T02:34:34.953Z,96866.69
2022-08-18T02:37:04.540Z,96860.63
2022-08-18T02:39:35.146Z,96864.84
2022-08-18T02:42:05.289Z,96866.09
2022-08-18T02:44:33.599Z,96871.53
2022-08-18T02:47:02.350Z,96873.50
2022-08-18T02:49:30.584Z,96866.66
2022-08-18T02:51:59.120Z,96879.59
2022-08-18T02:54:27.351Z,96868.00
2022-08-18T02:56:57.270Z,96857.63
2022-08-18T02:59:31.949Z,96859.72
2022-08-18T03:02:01.931Z,96860.19
2022-08-18T03:04:31.418Z,96868.09
2022-08-18T03:07:02.182Z,96865.38
2022-08-18T03:09:31.633Z,96870.19
2022-08-18T03:12:00.163Z,96873.97
2022-08-18T03:14:30.026Z,96871.69
2022-08-18T03:16:58.565Z,96871.16
2022-08-18T03:19:28.751Z,96866.09
2022-08-18T03:22:02.940Z,96875.53
2022-08-18T03:24:33.785Z,96875.44
2022-08-18T03:27:02.707Z,96879.59
2022-08-18T03:29:33.075Z,96880.84
2022-08-18T03:32:02.306Z,96880.84
2022-08-18T03:34:30.880Z,96882.25
2022-08-18T03:37:00.235Z,96899.03
2022-08-18T03:39:29.628Z,96884.69
2022-08-18T03:42:01.627Z,96887.81
2022-08-18T03:44:33.475Z,96896.13
2022-08-18T03:47:03.194Z,96886.13
2022-08-18T03:49:32.432Z,96888.31
2022-08-18T03:52:01.583Z,96892.53
2022-08-18T03:54:32.254Z,96889.44
2022-08-18T03:59:48.436Z,96884.59
2022-08-18T04:02:16.860Z,96890.09
2022-08-18T04:04:45.200Z,96877.41
2022-08-18T04:07:17.299Z,96876.44
2022-08-18T04:09:46.033Z,96870.19
2022-08-18T04:12:16.750Z,96884.06
2022-08-18T04:14:49.405Z,96879.59
2022-08-18T04:17:20.451Z,96878.22
2022-08-18T04:19:48.678Z,96872.19
2022-08-18T04:22:18.500Z,96868.81
2022-08-18T04:24:47.049Z,96866.75
2022-08-18T04:27:15.493Z,96857.50
2022-08-18T04:29:43.731Z,96854.34
2022-08-18T04:32:13.446Z,96856.94
2022-08-18T04:34:41.801Z,96860.22
2022-08-18T04:37:11.029Z,96868.84
2022-08-18T04:39:39.530Z,96879.03
2022-08-18T04:42:08.040Z,96878.03
2022-08-18T04:44:37.910Z,96884.97
2022-08-18T04:47:06.942Z,96890.16
2022-08-18T04:49:37.184Z,96893.66
2022-08-18T04:52:40.051Z,96895.34
2022-08-18T04:55:10.884Z,96888.34
2022-08-18T04:57:39.535Z,96892.28
2022-08-18T05:00:11.144Z,96896.56
2022-08-18T05:02:39.450Z,96887.78
2022-08-18T05:05:10.236Z,96890.19
2022-08-18T05:07:38.571Z,96886.56
2022-08-18T05:10:07.261Z,96887.00
2022-08-18T05:12:36.564Z,96875.00
2022-08-18T05:15:05.451Z,96872.16
2022-08-18T05:17:33.725Z,96868.78
2022-08-18T05:20:03.885Z,96867.59
2022-08-18T05:22:39.211Z,96862.81
2022-08-18T05:27:54.672Z,96862.22
2022-08-18T05:30:22.988Z,96860.16
2022-08-18T05:32:51.391Z,96854.38
2022-08-18T05:35:23.889Z,96859.09
2022-08-18T05:38:09.179Z,96865.56
2022-08-18T05:40:38.089Z,96864.59
2022-08-18T05:43:06.781Z,96867.84
2022-08-18T05:45:36.174Z,96873.13
2022-08-18T05:48:04.960Z,96881.94
2022-08-18T05:50:35.656Z,96883.72
2022-08-18T05:53:13.485Z,96886.44
2022-08-18T05:56:14.622Z,96881.59
2022-08-18T05:58:45.103Z,96886.81
2022-08-18T06:01:16.141Z,96892.44
2022-08-18T06:03:47.786Z,96890.91
2022-08-18T06:06:19.679Z,96900.53
2022-08-18T06:08:55.405Z,96903.66
2022-08-18T06:11:23.610Z,96900.97
2022-08-18T06:13:59.456Z,96912.34
2022-08-18T06:16:44.536Z,96928.25
2022-08-18T06:19:33.576Z,96942.81
2022-08-18T06:22:07.686Z,96940.81
2022-08-18T06:24:45.441Z,96933.13
2022-08-18T06:27:18.751Z,96941.16
2022-08-18T06:29:56.155Z,96927.81
2022-08-18T06:32:32.169Z,96923.97
2022-08-18T06:35:10.803Z,96917.09
2022-08-18T06:38:03.901Z,96914.34
2022-08-18T06:40:33.453Z,96923.94
2022-08-18T06:43:02.040Z,96917.47
2022-08-18T06:45:39.934Z,96921.50
2022-08-18T06:48:15.601Z,96911.53
2022-08-18T06:50:50.612Z,96903.25
2022-08-18T06:53:28.018Z,96897.47
2022-08-18T06:55:57.982Z,96893.44
2022-08-18T06:58:30.171Z,96903.09
2022-08-18T07:01:02.234Z,96919.34
2022-08-18T07:03:44.668Z,96921.22
2022-08-18T07:06:27.653Z,96930.00
2022-08-18T07:08:57.938Z,96932.78
2022-08-18T07:11:29.453Z,96934.38
2022-08-18T07:14:15.460Z,96944.50
2022-08-18T07:16:58.480Z,96941.56
2022-08-18T07:19:31.427Z,96952.63
2022-08-18T07:22:03.165Z,96948.56
2022-08-18T07:24:33.502Z,96943.34
2022-08-18T07:27:05.855Z,96937.09
2022-08-18T07:29:36.004Z,96935.22
2022-08-18T07:32:21.301Z,96950.44
2022-08-18T07:34:53.799Z,96941.94
2022-08-18T07:37:28.821Z,96936.94
2022-08-18T07:40:02.713Z,96948.47
2022-08-18T07:43:01.452Z,96939.38
2022-08-18T07:45:30.674Z,96933.59
2022-08-18T07:48:15.778Z,96933.16
2022-08-18T07:51:00.826Z,96910.72
2022-08-18T07:53:38.747Z,96897.66
2022-08-18T07:56:11.774Z,96897.03
2022-08-18T07:58:45.650Z,96888.72
2022-08-18T08:01:20.208Z,96881.03
2022-08-18T08:03:53.692Z,96871.66
2022-08-18T08:06:26.176Z,96877.84
2022-08-18T08:09:02.391Z,96871.06
2022-08-18T08:11:40.244Z,96860.56
2022-08-18T08:14:26.534Z,96857.88
2022-08-18T08:17:03.700Z,96848.47
2022-08-18T08:20:00.462Z,96841.88
2022-08-18T08:22:37.502Z,96850.91
2022-08-18T08:25:35.057Z,96863.41
2022-08-18T08:28:10.190Z,96858.34
2022-08-18T08:30:44.181Z,96864.44
2022-08-18T08:33:26.057Z,96861.69
2022-08-18T08:35:57.395Z,96864.31
2022-08-18T08:38:42.136Z,96866.56
2022-08-18T08:41:13.370Z,96854.47
2022-08-18T08:43:43.818Z,96864.13
2022-08-18T08:46:16.754Z,96848.13
2022-08-18T08:48:49.151Z,96848.44
2022-08-18T08:51:33.069Z,96842.44
2022-08-18T08:54:06.698Z,96838.91
2022-08-18T08:56:38.030Z,96831.69
2022-08-18T08:59:09.713Z,96835.38
2022-08-18T09:01:49.417Z,96840.31
2022-08-18T09:04:30.410Z,96842.06
2022-08-18T09:07:09.124Z,96842.00
2022-08-18T09:10:03.232Z,96841.47
2022-08-18T09:12:45.045Z,96847.25
2022-08-18T09:15:31.033Z,96846.84
2022-08-18T09:18:19.578Z,96839.59
2022-08-18T09:20:57.227Z,96840.06
2022-08-18T09:23:27.780Z,96836.56
2022-08-18T09:25:58.592Z,96834.03
2022-08-18T09:28:56.634Z,96829.97
2022-08-18T09:31:25.781Z,96827.22
2022-08-18T09:34:10.636Z,96828.06
2022-08-18T09:36:46.906Z,96837.25
2022-08-18T09:39:40.916Z,96831.22
2022-08-18T09:42:15.894Z,96826.75
2022-08-18T09:45:10.121Z,96819.13
2022-08-18T09:48:02.450Z,96807.19
2022-08-18T09:50:57.100Z,96803.84
2022-08-18T09:53:39.845Z,96801.47
2022-08-18T09:56:08.232Z,96806.09
2022-08-18T09:58:55.167Z,96798.69
2022-08-18T10:01:52.179Z,96808.22
2022-08-18T10:04:33.818Z,96801.53
2022-08-18T10:07:22.008Z,96810.81
2022-08-18T10:10:12.837Z,96812.69
2022-08-18T10:13:07.066Z,96813.03
2022-08-18T10:15:52.961Z,96814.03
2022-08-18T10:18:38.106Z,96804.34
2022-08-18T10:21:17.579Z,96806.22
2022-08-18T10:24:14.737Z,96805.88
2022-08-18T10:27:15.048Z,96801.63
2022-08-18T10:29:57.550Z,96796.94
2022-08-18T10:32:39.058Z,96804.97
2022-08-18T10:35:52.680Z,96797.00
2022-08-18T10:38:25.938Z,96786.94
2022-08-18T10:41:10.023Z,96779.47
2022-08-18T10:43:55.973Z,96766.72
2022-08-18T10:49:25.894Z,96760.59
2022-08-18T10:52:12.441Z,96769.03
2022-08-18T10:54:59.440Z,96786.41
2022-08-18T10:57:34.580Z,96782.03
2022-08-18T11:00:07.264Z,96788.56
2022-08-18T11:02:49.025Z,96778.41
2022-08-18T11:05:21.498Z,96785.72
2022-08-18T11:07:53.530Z,96784.84
2022-08-18T11:10:57.850Z,96790.59
2022-08-18T11:13:33.563Z,96789.69
2022-08-18T11:18:59.409Z,96800.97
2022-08-18T11:21:42.240Z,96796.81
2022-08-18T11:24:15.935Z,96798.84
2022-08-18T11:26:52.687Z,96793.16
2022-08-18T11:29:32.463Z,96803.22
2022-08-18T11:32:05.293Z,96801.16
2022-08-18T11:34:41.240Z,96809.56
2022-08-18T11:37:28.170Z,96809.28
2022-08-18T11:43:29.985Z,96794.88
2022-08-18T11:46:17.561Z,96795.31
2022-08-18T11:48:54.163Z,96779.53
2022-08-18T11:51:24.724Z,96785.28
2022-08-18T11:56:45.646Z,96789.28
2022-08-18T11:59:53.246Z,96787.25
2022-08-18T12:02:23.914Z,96775.84
2022-08-18T12:04:54.235Z,96772.53
2022-08-18T12:07:29.050Z,96776.50
2022-08-18T12:10:19.396Z,96778.97
2022-08-18T12:18:31.939Z,96770.75
2022-08-18T12:21:02.935Z,96765.38
2022-08-18T12:23:44.542Z,96764.69
2022-08-18T12:29:08.666Z,96760.22
2022-08-18T12:34:27.464Z,96777.75
2022-08-18T12:36:57.929Z,96789.03
2022-08-18T12:39:26.280Z,96769.75
2022-08-18T12:41:54.460Z,96759.16
2022-08-18T12:44:22.872Z,96757.81
2022-08-18T12:46:56.252Z,96772.00
2022-08-18T12:49:27.015Z,96770.38
2022-08-18T12:51:55.832Z,96776.72
2022-08-18T12:54:25.091Z,96789.13
2022-08-18T12:56:55.803Z,96783.28
2022-08-18T12:59:24.924Z,96794.88
2022-08-18T13:01:58.309Z,96801.38
2022-08-18T13:04:28.445Z,96795.28
2022-08-18T13:07:05.685Z,96804.34
2022-08-18T13:09:53.552Z,96808.88
2022-08-18T13:12:26.165Z,96817.00
2022-08-18T13:14:55.897Z,96816.81
2022-08-18T13:17:30.325Z,96828.97
2022-08-18T13:20:08.927Z,96830.63
2022-08-18T13:22:37.404Z,96842.47
2022-08-18T13:25:07.352Z,96835.56
2022-08-18T13:27:37.438Z,96835.69
2022-08-18T13:30:29.123Z,96845.69
2022-08-18T13:32:58.917Z,96826.22
2022-08-18T13:35:29.972Z,96823.75
2022-08-18T13:38:12.421Z,96821.84
2022-08-18T13:40:47.177Z,96817.41
2022-08-18T13:43:17.488Z,96815.09
2022-08-18T13:45:53.056Z,96814.91
2022-08-18T13:48:24.254Z,96830.53
2022-08-18T13:50:56.490Z,96843.59
2022-08-18T13:53:26.314Z,96855.28
2022-08-18T13:55:58.660Z,96885.22
2022-08-18T13:58:27.948Z,96891.16
2022-08-18T14:01:22.488Z,96905.69
2022-08-18T14:03:48.424Z,96933.16
2022-08-18T14:06:22.778Z,96965.44
2022-08-18T14:08:53.353Z,97092.06
2022-08-18T14:11:25.844Z,97204.78
2022-08-18T14:13:54.913Z,97188.72
2022-08-18T14:16:23.501Z,97303.63
2022-08-18T14:19:12.636Z,97251.19
2022-08-18T14:22:05.205Z,97244.53
2022-08-18T14:24:52.523Z,97216.34
2022-08-18T14:27:21.511Z,97181.88
2022-08-18T14:29:50.751Z,97151.53
2022-08-18T14:32:29.425Z,97130.28
2022-08-18T14:35:00.882Z,97108.66
2022-08-18T14:37:48.761Z,97071.38
2022-08-18T14:40:19.995Z,97038.34
2022-08-18T14:42:54.253Z,97028.22
2022-08-18T14:45:27.704Z,97030.72
2022-08-18T14:48:06.696Z,96982.25
2022-08-18T14:50:39.226Z,96961.47
2022-08-18T14:53:08.797Z,96956.69
2022-08-18T14:55:40.147Z,96929.59
2022-08-18T14:58:08.968Z,96932.31
2022-08-18T15:00:53.629Z,96939.19
2022-08-18T15:03:28.336Z,96925.97
2022-08-18T15:06:00.542Z,96922.09
2022-08-18T15:08:30.690Z,96923.41
2022-08-18T15:11:00.994Z,96911.91
2022-08-18T15:13:29.898Z,96909.47
2022-08-18T15:16:01.931Z,96901.03
2022-08-18T15:18:31.406Z,96907.91
2022-08-18T15:21:19.590Z,96928.47
2022-08-18T15:24:23.033Z,96920.13
2022-08-18T15:26:58.154Z,96914.81
2022-08-18T15:29:32.061Z,96928.84
2022-08-18T15:32:10.136Z,96920.38
2022-08-18T15:34:46.808Z,96925.03
2022-08-18T15:37:22.327Z,96915.50
2022-08-18T15:40:05.606Z,96909.75
2022-08-18T15:42:33.904Z,96897.06
2022-08-18T15:45:11.997Z,96906.88
2022-08-18T15:47:42.378Z,96888.88
2022-08-18T15:50:25.533Z,96882.97
2022-08-18T15:52:56.516Z,96884.16
2022-08-18T15:55:28.112Z,96880.75
2022-08-18T15:57:58.359Z,96878.94
2022-08-18T16:00:28.031Z,96853.97
2022-08-18T16:03:00.196Z,96856.34
2022-08-18T16:05:31.347Z,96843.63
2022-08-18T16:08:01.354Z,96837.25
2022-08-18T16:10:33.414Z,96827.44
2022-08-18T16:13:04.489Z,96817.78
2022-08-18T16:15:36.947Z,96822.09
2022-08-18T16:18:06.555Z,96825.16
2022-08-18T16:20:35.262Z,96825.03
2022-08-18T16:23:03.964Z,96825.94
2022-08-18T16:25:33.719Z,96811.94
2022-08-18T16:28:02.577Z,96808.06
2022-08-18T16:30:32.760Z,96800.31
2022-08-18T16:33:02.864Z,96791.78
2022-08-18T16:35:31.749Z,96781.13
2022-08-18T16:38:04.841Z,96783.56
2022-08-18T16:40:34.478Z,96779.03
2022-08-18T16:43:02.773Z,96776.41
2022-08-18T16:45:32.979Z,96780.44
2022-08-18T16:48:02.363Z,96772.66
2022-08-18T16:50:31.315Z,96768.25
2022-08-18T16:53:00.062Z,96777.94
2022-08-18T16:55:30.245Z,96783.31
2022-08-18T16:58:17.671Z,96796.47
2022-08-18T17:01:03.061Z,96786.88
2022-08-18T17:03:49.037Z,96785.28
2022-08-18T17:06:20.862Z,96796.84
2022-08-18T17:08:49.202Z,96806.91
2022-08-18T17:11:19.501Z,96802.75
2022-08-18T17:13:50.805Z,96805.06
2022-08-18T17:16:20.937Z,96803.22
2022-08-18T17:18:49.406Z,96784.75
2022-08-18T17:21:19.603Z,96792.19
2022-08-18T17:23:48.886Z,96787.56
2022-08-18T17:26:23.928Z,96791.72
2022-08-18T17:28:58.450Z,96789.69
2022-08-18T17:31:27.254Z,96792.19
2022-08-18T17:33:58.104Z,96795.09
2022-08-18T17:36:33.679Z,96792.34
2022-08-18T17:39:05.326Z,96781.50
2022-08-18T17:41:56.464Z,96775.97
2022-08-18T17:44:31.177Z,96770.97
2022-08-18T17:47:00.572Z,96776.31
2022-08-18T17:49:49.382Z,96774.78
2022-08-18T17:52:40.611Z,96776.44
2022-08-18T17:55:15.433Z,96778.88
2022-08-18T17:57:58.567Z,96789.53
2022-08-18T18:00:32.814Z,96792.09
2022-08-18T18:03:01.458Z,96795.50
2022-08-18T18:05:40.923Z,96795.00
2022-08-18T18:08:11.361Z,96803.88
2022-08-18T18:11:04.008Z,96819.56
2022-08-18T18:13:33.599Z,96818.44
2022-08-18T18:16:21.331Z,96833.25
2022-08-18T18:18:59.900Z,96834.44
2022-08-18T18:22:00.703Z,96847.34
2022-08-18T18:24:23.661Z,96852.53
2022-08-18T18:26:53.936Z,96847.50
2022-08-18T18:29:29.284Z,96864.84
2022-08-18T18:32:05.991Z,96860.75
2022-08-18T18:34:39.845Z,96868.47
2022-08-18T18:37:26.161Z,96877.72
2022-08-18T18:39:59.201Z,96878.06
2022-08-18T18:42:29.656Z,96871.66
2022-08-18T18:44:59.652Z,96879.88
2022-08-18T18:47:44.254Z,96880.41
2022-08-18T18:50:18.602Z,96873.63
2022-08-18T18:52:52.955Z,96870.03
2022-08-18T18:55:24.981Z,96866.19
2022-08-18T18:58:03.393Z,96864.47
2022-08-18T19:00:37.253Z,96873.97
2022-08-18T19:03:12.906Z,96880.66
2022-08-18T19:05:47.082Z,96890.69
2022-08-18T19:08:24.111Z,96890.13
2022-08-18T19:10:58.506Z,96894.47
2022-08-18T19:13:33.042Z,96914.38
2022-08-18T19:16:24.138Z,96904.88
2022-08-18T19:18:57.746Z,96911.06
2022-08-18T19:22:03.536Z,96912.69
2022-08-18T19:24:38.839Z,96910.41
2022-08-18T19:27:08.971Z,96920.34
2022-08-18T19:29:41.116Z,96913.59
2022-08-18T19:32:16.506Z,96910.97
2022-08-18T19:34:51.592Z,96907.94
2022-08-18T19:37:31.584Z,96913.19
2022-08-18T19:40:07.363Z,96920.16
2022-08-18T19:42:42.767Z,96918.19
2022-08-18T19:45:19.376Z,96921.13
2022-08-18T19:47:51.700Z,96930.72
2022-08-18T19:50:27.898Z,96931.13
2022-08-18T19:53:11.488Z,96937.84
2022-08-18T19:55:51.150Z,96929.31
2022-08-18T19:58:36.804Z,96938.34
2022-08-18T20:01:10.894Z,96931.06
2022-08-18T20:03:59.993Z,96925.84
2022-08-18T20:06:56.313Z,96931.59
2022-08-18T20:09:45.087Z,96937.88
2022-08-18T20:12:17.745Z,96934.75
2022-08-18T20:15:00.415Z,96938.91
2022-08-18T20:17:28.712Z,96925.69
2022-08-18T20:20:18.310Z,96917.28
2022-08-18T20:22:51.218Z,96918.94
2022-08-18T20:25:36.719Z,96919.19
2022-08-18T20:28:36.442Z,96910.78
2022-08-18T20:31:13.108Z,96915.44
2022-08-18T20:33:46.841Z,96917.16
2022-08-18T20:36:23.880Z,96910.03
2022-08-18T20:38:55.639Z,96915.56
2022-08-18T20:41:43.337Z,96918.34
2022-08-18T20:44:48.018Z,96918.81
2022-08-18T20:47:39.948Z,96919.06
2022-08-18T20:50:34.061Z,96927.00
2022-08-18T20:53:08.552Z,96929.06
2022-08-18T20:55:46.257Z,96934.31
2022-08-18T20:58:18.521Z,96941.06
2022-08-18T21:00:50.745Z,96939.03
2022-08-18T21:03:21.180Z,96928.41
2022-08-18T21:05:51.582Z,96938.38
2022-08-18T21:08:27.485Z,96939.94
2022-08-18T21:10:59.413Z,96940.94
2022-08-18T21:13:40.730Z,96932.09
2022-08-18T21:16:10.097Z,96949.13
2022-08-18T21:18:39.662Z,96940.88
2022-08-18T21:21:15.941Z,96934.75
2022-08-18T21:23:58.719Z,96922.44
2022-08-18T21:26:30.585Z,96919.00
2022-08-18T21:29:03.624Z,96923.31
2022-08-18T21:31:44.012Z,96903.41
2022-08-18T21:34:18.393Z,96894.50
2022-08-18T21:36:52.481Z,96900.97
2022-08-18T21:39:21.520Z,96914.78
2022-08-18T21:41:54.458Z,96920.88
2022-08-18T21:44:24.550Z,96924.84
2022-08-18T21:46:53.853Z,96940.25
2022-08-18T21:49:27.093Z,96950.16
2022-08-18T21:51:57.328Z,96965.75
2022-08-18T21:54:34.405Z,96969.97
2022-08-18T21:57:22.754Z,96976.63
2022-08-18T22:00:14.554Z,96980.59
2022-08-18T22:02:42.785Z,96979.88
2022-08-18T22:05:12.145Z,96992.75
2022-08-18T22:07:47.918Z,96983.91
2022-08-18T22:10:42.585Z,96976.94
2022-08-18T22:13:37.290Z,96982.88
2022-08-18T22:16:27.868Z,96970.38
2022-08-18T22:19:13.838Z,96949.63
2022-08-18T22:21:46.577Z,96958.53
2022-08-18T22:24:19.601Z,96947.31
2022-08-18T22:26:50.552Z,96938.38
2022-08-18T22:29:33.953Z,96930.91
2022-08-18T22:32:03.568Z,96928.31
2022-08-18T22:34:34.426Z,96919.84
2022-08-18T22:37:05.822Z,96915.72
2022-08-18T22:39:41.777Z,96904.81
2022-08-18T22:42:10.822Z,96907.78
2022-08-18T22:44:41.616Z,96916.47
2022-08-18T22:47:10.286Z,96932.56
2022-08-18T22:49:38.921Z,96927.47
2022-08-18T22:52:20.200Z,96916.47
2022-08-18T22:54:50.912Z,96917.41
2022-08-18T22:57:19.370Z,96909.69
2022-08-18T22:59:53.372Z,96893.31
2022-08-18T23:02:22.371Z,96887.28
2022-08-18T23:04:50.562Z,96888.34
2022-08-18T23:07:23.153Z,96872.31
2022-08-18T23:09:51.327Z,96860.06
2022-08-18T23:12:19.597Z,96886.97
2022-08-18T23:14:49.701Z,96877.59
2022-08-18T23:17:21.508Z,96884.13
2022-08-18T23:19:52.284Z,96883.72
2022-08-18T23:22:20.719Z,96879.06
2022-08-18T23:24:49.015Z,96865.44
2022-08-18T23:27:18.202Z,96860.56
2022-08-18T23:29:46.488Z,96842.84
2022-08-18T23:32:14.908Z,96846.19
2022-08-18T23:34:44.519Z,96855.50
2022-08-18T23:37:12.771Z,96854.16
2022-08-18T23:39:41.847Z,96839.47
2022-08-18T23:42:13.303Z,96847.78
2022-08-18T23:44:42.316Z,96838.06
2022-08-18T23:47:10.682Z,96829.91
2022-08-18T23:49:39.154Z,96807.69
2022-08-18T23:52:09.574Z,96801.75
2022-08-18T23:54:37.919Z,96801.31
2022-08-18T23:57:06.612Z,96809.31
2022-08-18T23:59:35.055Z,96805.75
